Time;durP1;ratioP1;P1;durP2;ratioP2;P2;SDS_P1;SDS_P2;PMS_P1;PMS_P2;Temp;Humidity;BMP_temperature;BMP_pressure;BME280_temperature;BME280_humidity;BME280_pressure;Samples;Min_cycle;Max_cycle;Signal;HPM_P1;HPM_P2
2022/02/09 00:07:44;;;;;;;8.55;3.97;;;9.10;99.00;;;;;;5010848;28;20088;-52
2022/02/09 00:10:10;;;;;;;5.68;3.28;;;;;;;;;;5015474;28;20466;-52
2022/02/09 00:18:19;;;;;;;7.50;3.55;;;9.00;96.60;;;;;;5014273;28;20358;-51
2022/02/09 00:36:36;;;;;;;15.02;7.05;;;9.20;96.10;;;;;;4993869;28;20038;-53
2022/02/09 01:38:35;;;;;;;8.75;4.55;;;9.80;94.90;;;;;;5011952;28;20045;-52
2022/02/09 01:57:16;;;;;;;6.10;3.05;;;9.90;95.10;;;;;;5002933;28;20053;-51
2022/02/09 01:59:46;;;;;;;7.53;3.40;;;9.90;95.00;;;;;;4994857;28;20499;-52
2022/02/09 02:02:12;;;;;;;10.63;5.15;;;9.80;94.80;;;;;;5006933;28;20210;-52
2022/02/09 02:04:40;;;;;;;7.00;3.92;;;9.80;94.70;;;;;;5000742;28;20038;-52
2022/02/09 02:07:16;;;;;;;5.18;3.28;;;9.80;94.40;;;;;;5001523;28;20590;-52
2022/02/09 02:09:42;;;;;;;6.68;2.55;;;9.80;94.10;;;;;;5006751;28;20053;-52
2022/02/09 02:12:14;;;;;;;5.68;2.70;;;9.80;93.70;;;;;;5012235;28;20053;-54
2022/02/09 02:14:48;;;;;;;6.55;2.67;;;9.80;93.20;;;;;;5013676;28;20040;-52
2022/02/09 02:17:22;;;;;;;4.32;2.58;;;9.80;93.50;;;;;;5014067;28;20069;-53
2022/02/09 02:19:54;;;;;;;5.43;2.17;;;9.80;93.50;;;;;;5004650;28;20033;-53
2022/02/09 02:28:19;;;;;;;5.07;2.80;;;9.90;93.50;;;;;;5005345;28;20092;-52
2022/02/09 02:31:07;;;;;;;5.43;2.63;;;9.90;93.50;;;;;;5009854;28;20052;-53
2022/02/09 02:39:12;;;;;;;7.40;3.58;;;10.00;93.50;;;;;;5010895;28;20425;-52
2022/02/09 03:09:18;;;;;;;4.65;2.80;;;9.60;99.90;;;;;;4973208;28;20085;-51
2022/02/09 03:17:37;;;;;;;6.80;2.67;;;9.30;99.90;;;;;;4972063;28;20043;-52
2022/02/09 03:20:15;;;;;;;4.15;2.47;;;9.20;99.90;;;;;;4955678;28;20134;-51
2022/02/09 03:23:13;;;;;;;10.23;5.57;;;9.10;99.90;;;;;;4955867;28;20046;-53
2022/02/09 03:26:19;;;;;;;7.13;3.22;;;9.00;99.90;;;;;;4970861;28;20038;-52
2022/02/09 03:55:15;;;;;;;10.52;6.80;;;8.30;97.40;;;;;;4987835;28;20033;-54
2022/02/09 03:57:50;;;;;;;16.85;9.30;;;8.40;97.40;;;;;;4986771;28;20042;-53
2022/02/09 04:00:21;;;;;;;29.80;19.77;;;8.40;97.30;;;;;;4999192;28;20433;-53
2022/02/09 04:02:50;;;;;;;23.67;14.43;;;8.40;97.80;;;;;;5009160;28;20022;-54
2022/02/09 04:05:17;;;;;;;18.50;10.40;;;8.30;97.80;;;;;;5010379;28;20503;-53
2022/02/09 04:07:43;;;;;;;18.38;10.50;;;8.30;97.60;;;;;;5014792;28;20100;-53
2022/02/09 04:10:15;;;;;;;18.33;11.68;;;8.30;97.60;;;;;;5029416;28;20049;-53
2022/02/09 04:12:51;;;;;;;10.70;5.07;;;8.30;97.60;;;;;;5011111;28;20036;-54
2022/02/09 04:15:27;;;;;;;8.88;4.13;;;8.50;97.20;;;;;;5014926;28;20041;-53
2022/02/09 04:36:16;;;;;;;9.57;4.57;;;8.40;96.80;;;;;;5014691;28;20044;-53
2022/02/09 04:38:57;;;;;;;10.52;4.70;;;8.40;96.90;;;;;;5011577;28;20038;-52
2022/02/09 04:44:17;;;;;;;8.48;3.97;;;8.40;97.10;;;;;;5013532;28;20088;-54
2022/02/09 04:54:33;;;;;;;12.88;4.28;;;8.20;97.80;;;;;;4988480;28;20038;-53
2022/02/09 04:57:07;;;;;;;10.68;4.85;;;8.30;97.90;;;;;;5002715;28;20067;-53
2022/02/09 05:26:02;;;;;;;10.82;5.30;;;8.60;97.70;;;;;;4999909;28;20053;-53
2022/02/09 05:28:27;;;;;;;9.77;5.03;;;8.60;97.50;;;;;;5010122;28;20048;-52
2022/02/09 05:30:53;;;;;;;11.88;4.35;;;8.50;97.20;;;;;;5011110;28;20394;-54
2022/02/09 05:33:20;;;;;;;7.80;4.10;;;8.50;97.40;;;;;;5011766;28;20034;-52
2022/02/09 05:35:46;;;;;;;12.70;5.10;;;8.50;97.20;;;;;;5012240;28;20030;-53
2022/02/09 05:38:13;;;;;;;10.95;4.93;;;8.40;97.30;;;;;;5001777;28;20045;-52
2022/02/09 05:40:40;;;;;;;8.48;5.10;;;8.40;97.40;;;;;;5010778;28;20037;-53
2022/02/09 05:43:07;;;;;;;12.27;7.03;;;8.40;97.30;;;;;;5025670;28;20539;-53
2022/02/09 05:51:23;;;;;;;8.82;4.70;;;8.50;97.50;;;;;;5007793;28;20048;-53
2022/02/09 05:59:04;;;;;;;59.72;21.52;;;8.60;99.90;;;;;;5009931;28;20480;-53
2022/02/09 06:01:30;;;;;;;14.82;6.28;;;8.50;99.90;;;;;;5010678;28;20033;-53
2022/02/09 06:03:55;;;;;;;246.32;206.88;;;8.60;99.90;;;;;;5010863;28;20433;-55
2022/02/09 06:06:22;;;;;;;55.83;29.67;;;8.50;98.20;;;;;;5018185;28;20042;-52
2022/02/09 06:08:47;;;;;;;42.45;22.25;;;8.50;97.90;;;;;;5011442;28;20034;-54
2022/02/09 06:22:00;;;;;;;26.02;13.38;;;8.30;99.90;;;;;;5011329;28;20048;-53
2022/02/09 06:24:26;;;;;;;23.40;12.07;;;8.10;97.80;;;;;;5026113;28;20074;-53
2022/02/09 06:26:52;;;;;;;23.10;11.18;;;8.10;97.60;;;;;;5015274;28;20144;-50
2022/02/09 06:29:18;;;;;;;22.98;11.98;;;8.10;97.90;;;;;;5028519;28;20049;-51
2022/02/09 06:31:46;;;;;;;18.27;10.63;;;8.20;98.00;;;;;;5015163;28;20053;-53
2022/02/09 06:34:14;;;;;;;14.15;8.95;;;8.20;97.50;;;;;;5017177;28;20046;-52
2022/02/09 06:36:44;;;;;;;14.63;8.75;;;8.20;97.90;;;;;;5018085;28;20440;-53
2022/02/09 06:39:12;;;;;;;11.95;7.60;;;8.30;97.50;;;;;;5018713;28;20045;-53
2022/02/09 06:41:39;;;;;;;13.75;6.97;;;8.40;97.50;;;;;;5023245;28;20074;-53
2022/02/09 06:44:05;;;;;;;21.05;12.60;;;8.50;97.40;;;;;;5024087;28;20493;-53
2022/02/09 06:46:34;;;;;;;16.17;10.50;;;8.50;97.10;;;;;;5025293;28;20115;-53
2022/02/09 06:49:06;;;;;;;12.80;8.95;;;8.50;96.90;;;;;;5015833;28;20061;-53
2022/02/09 06:51:37;;;;;;;15.30;10.27;;;8.60;96.80;;;;;;5022700;28;20065;-53
2022/02/09 06:54:23;;;;;;;10.68;6.22;;;8.60;97.20;;;;;;5027147;28;20297;-54
2022/02/09 06:59:30;;;;;;;10.48;6.78;;;8.60;97.00;;;;;;5038953;28;20021;-52
2022/02/09 07:01:56;;;;;;;18.42;8.15;;;8.70;96.90;;;;;;5031408;28;20034;-51
2022/02/09 07:04:21;;;;;;;14.23;8.35;;;8.80;97.40;;;;;;5030211;28;20040;-51
2022/02/09 07:06:47;;;;;;;18.80;7.93;;;8.70;97.40;;;;;;5024784;28;20034;-51
2022/02/09 07:09:14;;;;;;;13.13;7.47;;;;;;;;;;5010161;28;20034;-50
2022/02/09 07:11:40;;;;;;;33.40;16.10;;;;;;;;;;5010524;28;20104;-50
2022/02/09 07:14:09;;;;;;;25.45;14.35;;;;;;;;;;5012148;28;20026;-51
2022/02/09 07:16:35;;;;;;;21.95;11.20;;;8.80;99.90;;;;;;5008863;28;20100;-51
2022/02/09 07:19:05;;;;;;;36.00;18.35;;;8.90;97.10;;;;;;5011276;28;20454;-51
2022/02/09 07:21:32;;;;;;;15.93;10.60;;;9.10;99.90;;;;;;5009576;28;20060;-51
2022/02/09 07:24:00;;;;;;;14.23;7.60;;;9.00;99.70;;;;;;5011651;28;20033;-51
2022/02/09 07:26:41;;;;;;;11.05;6.00;;;9.10;99.90;;;;;;5026077;28;20133;-51
2022/02/09 07:29:07;;;;;;;14.45;6.22;;;9.00;96.50;;;;;;5012190;28;20120;-54
2022/02/09 07:31:33;;;;;;;14.23;8.15;;;9.20;99.30;;;;;;5009299;28;20053;-50
2022/02/09 07:33:59;;;;;;;15.50;9.35;;;9.30;96.40;;;;;;5012056;28;20029;-51
2022/02/09 07:36:31;;;;;;;14.63;7.32;;;9.20;96.60;;;;;;5012428;28;20032;-51
2022/02/09 07:38:58;;;;;;;20.40;11.52;;;9.20;95.50;;;;;;5010671;28;20088;-51
2022/02/09 07:41:24;;;;;;;29.15;16.05;;;9.40;99.90;;;;;;5013111;28;20026;-51
2022/02/09 07:49:38;;;;;;;10.40;5.30;;;9.40;99.90;;;;;;4992492;28;20046;-50
2022/02/09 07:52:08;;;;;;;10.43;5.45;;;9.40;99.90;;;;;;4992403;28;20162;-51
2022/02/09 07:54:34;;;;;;;9.80;6.50;;;9.50;99.90;;;;;;4992697;28;20569;-51
2022/02/09 07:57:00;;;;;;;8.88;4.88;;;9.60;99.90;;;;;;4991688;28;20042;-50
2022/02/09 07:59:25;;;;;;;9.32;5.93;;;9.60;99.90;;;;;;4989634;28;20467;-51
2022/02/09 08:01:51;;;;;;;21.80;10.57;;;9.60;99.90;;;;;;4988919;28;20570;-50
2022/02/09 08:04:17;;;;;;;17.65;9.02;;;9.60;99.90;;;;;;4990947;28;20487;-48
2022/02/09 08:06:47;;;;;;;17.23;7.95;;;;;;;;;;4989824;28;20029;-46
2022/02/09 08:29:19;;;;;;;9.60;4.85;;;10.80;99.90;;;;;;4873636;29;20095;-51
2022/02/09 08:33:47;;;;;;;18.58;10.65;;;;;;;;;;4867098;29;20048;-49
2022/02/09 08:36:14;;;;;;;18.45;10.10;;;;;;;;;;4875077;29;20446;-49
2022/02/09 08:38:42;;;;;;;15.18;7.10;;;;;;;;;;4875736;29;20470;-49
2022/02/09 08:41:08;;;;;;;9.73;6.47;;;;;;;;;;4874122;29;20127;-51
2022/02/09 08:43:35;;;;;;;15.60;7.10;;;;;;;;;;4903987;29;20069;-45
2022/02/09 08:46:01;;;;;;;10.73;5.70;;;;;;;;;;4875520;29;20028;-48
2022/02/09 08:48:27;;;;;;;17.00;8.50;;;;;;;;;;4891862;28;20027;-49
2022/02/09 08:50:53;;;;;;;8.10;5.72;;;;;;;;;;4968671;28;20070;-54
2022/02/09 08:53:20;;;;;;;17.60;9.73;;;12.00;94.60;;;;;;4966257;28;20050;-52
2022/02/09 08:55:47;;;;;;;19.10;8.65;;;12.00;97.70;;;;;;4986981;28;20035;-51
2022/02/09 08:58:15;;;;;;;12.55;7.15;;;12.00;98.20;;;;;;5045118;28;20513;-52
2022/02/09 09:00:42;;;;;;;11.68;5.85;;;12.00;98.90;;;;;;5034004;28;20072;-54
2022/02/09 10:03:09;;;;;;;9.73;6.32;;;;;;;;;;4982494;28;20041;-52
2022/02/09 10:33:49;;;;;;;13.23;12.13;;;;;;;;;;4963257;28;20055;-49
2022/02/09 10:36:19;;;;;;;8.25;4.55;;;;;;;;;;4962811;28;20039;-49
2022/02/09 10:38:45;;;;;;;4.30;3.90;;;;;;;;;;4967358;28;20070;-49
2022/02/09 10:41:23;;;;;;;5.18;3.53;;;18.90;90.60;;;;;;5009945;28;20494;-44
2022/02/09 10:44:03;;;;;;;5.35;3.70;;;18.50;91.20;;;;;;5009391;28;20495;-52
2022/02/09 10:46:29;;;;;;;5.10;3.47;;;18.90;89.40;;;;;;5005689;28;20044;-48
2022/02/09 10:48:57;;;;;;;4.80;3.47;;;18.80;90.10;;;;;;5009926;28;20034;-48
2022/02/09 10:54:21;;;;;;;5.40;4.78;;;18.50;90.60;;;;;;5009183;28;20029;-49
2022/02/09 10:56:56;;;;;;;18.70;17.48;;;17.50;91.00;;;;;;5009664;28;20030;-50
2022/02/09 10:59:26;;;;;;;6.47;5.97;;;18.80;90.60;;;;;;5008890;28;20084;-51
2022/02/09 11:01:54;;;;;;;7.00;6.40;;;19.00;89.90;;;;;;5008685;28;20176;-49
2022/02/09 11:04:21;;;;;;;7.80;7.20;;;19.20;89.20;;;;;;5009858;28;20045;-47
2022/02/09 11:06:48;;;;;;;4.78;3.55;;;19.80;89.20;;;;;;5010238;28;20105;-46
2022/02/09 11:09:17;;;;;;;5.60;4.05;;;18.80;89.10;;;;;;5004196;28;20466;-46
2022/02/09 11:11:44;;;;;;;5.75;3.10;;;19.70;88.70;;;;;;5024289;28;20077;-53
2022/02/09 11:14:14;;;;;;;3.42;2.65;;;19.20;90.00;;;;;;5012715;28;20331;-51
2022/02/09 11:16:55;;;;;;;3.10;2.58;;;18.80;90.10;;;;;;5013133;28;20026;-47
2022/02/09 11:19:36;;;;;;;4.55;2.70;;;17.30;90.40;;;;;;5012090;28;20033;-56
2022/02/09 11:22:12;;;;;;;4.32;3.47;;;17.20;90.90;;;;;;5013983;28;20050;-53
2022/02/09 11:24:46;;;;;;;4.55;4.25;;;18.10;91.20;;;;;;5014178;28;20037;-53
2022/02/09 11:27:19;;;;;;;4.63;4.15;;;18.00;90.50;;;;;;5013172;28;20077;-52
2022/02/09 11:29:59;;;;;;;8.27;7.43;;;17.80;91.30;;;;;;5013537;28;20108;-51
2022/02/09 11:32:35;;;;;;;6.45;5.93;;;18.20;91.40;;;;;;5010335;28;21096;-49
2022/02/09 11:35:37;;;;;;;3.80;2.47;;;18.60;91.20;;;;;;5012648;28;20081;-50
2022/02/09 11:40:57;;;;;;;3.58;3.25;;;18.20;91.40;;;;;;5013745;28;20125;-49
2022/02/09 11:43:37;;;;;;;6.00;4.65;;;17.90;91.70;;;;;;5022207;28;20057;-49
2022/02/09 12:11:19;;;;;;;5.70;3.70;;;18.90;92.20;;;;;;4914061;29;20628;-49
2022/02/09 12:13:58;;;;;;;4.07;2.95;;;17.90;91.40;;;;;;4900282;29;20044;-49
2022/02/09 12:19:00;;;;;;;4.68;2.80;;;16.80;92.40;;;;;;4914744;29;20417;-49
2022/02/09 12:21:45;;;;;;;7.40;3.45;;;16.30;92.80;;;;;;4915155;29;20524;-50
2022/02/09 12:24:24;;;;;;;40.38;19.38;;;16.60;93.20;;;;;;4915783;29;20044;-49
2022/02/09 12:27:09;;;;;;;9.38;3.83;;;17.00;92.80;;;;;;4921300;29;20058;-50
2022/02/09 12:29:44;;;;;;;96.03;39.75;;;17.40;93.10;;;;;;4953575;29;20499;-50
2022/02/09 12:32:15;;;;;;;6.10;3.65;;;18.40;92.70;;;;;;4934048;29;20046;-48
2022/02/09 12:34:57;;;;;;;8.38;4.47;;;18.40;91.60;;;;;;4951856;28;20039;-49
2022/02/09 12:37:25;;;;;;;6.53;3.92;;;18.00;92.00;;;;;;4941897;29;20043;-49
2022/02/09 12:39:52;;;;;;;6.03;2.22;;;18.20;91.80;;;;;;4937366;28;20491;-49
2022/02/09 12:42:19;;;;;;;4.95;2.40;;;18.70;91.50;;;;;;4950893;28;20114;-49
2022/02/09 12:45:05;;;;;;;3.53;2.50;;;18.90;91.20;;;;;;4975233;28;20042;-49
2022/02/09 12:47:36;;;;;;;7.10;3.40;;;19.40;90.90;;;;;;5027927;28;20045;-49
2022/02/09 12:50:07;;;;;;;16.48;8.27;;;19.70;91.20;;;;;;5014580;28;20062;-49
2022/02/09 12:52:35;;;;;;;7.38;3.38;;;19.60;90.30;;;;;;5014125;28;20486;-46
2022/02/09 12:55:06;;;;;;;50.78;20.50;;;;;;;;;;5028596;28;20172;-48
2022/02/09 12:57:39;;;;;;;35.03;15.73;;;;;;;;;;4998593;28;20490;-50
2022/02/09 13:00:07;;;;;;;7.60;3.15;;;;;;;;;;5014183;28;20128;-48
2022/02/09 13:02:46;;;;;;;7.25;2.65;;;;;;;;;;5026033;28;20029;-48
2022/02/09 13:05:12;;;;;;;5.30;2.97;;;;;;;;;;5013567;28;20382;-48
2022/02/09 13:07:38;;;;;;;52.60;21.35;;;;;;;;;;5013327;28;20034;-49
2022/02/09 13:10:05;;;;;;;54.70;24.23;;;;;;;;;;5013031;28;20072;-48
2022/02/09 13:12:32;;;;;;;7.45;4.38;;;;;;;;;;4990864;28;20413;-48
2022/02/09 13:15:13;;;;;;;13.48;8.50;;;;;;;;;;5027885;28;20501;-48
2022/02/09 13:52:03;;;;;;;4.53;3.13;;;20.30;86.50;;;;;;4923531;29;20059;-52
2022/02/09 14:53:47;;;;;;;11.63;7.57;;;18.70;89.90;;;;;;5024523;28;20544;-51
2022/02/09 14:56:21;;;;;;;5.03;3.42;;;18.60;90.00;;;;;;5012529;28;20037;-50
2022/02/09 14:58:54;;;;;;;6.45;2.67;;;18.40;90.20;;;;;;5025246;28;20046;-50
2022/02/09 15:01:23;;;;;;;20.25;13.32;;;18.60;89.60;;;;;;5004697;28;20040;-50
2022/02/09 15:04:24;;;;;;;14.30;9.20;;;18.30;90.10;;;;;;5012377;28;20041;-50
2022/02/09 15:22:31;;;;;;;7.18;2.85;;;18.50;90.30;;;;;;5011947;28;20398;-50
2022/02/09 15:24:57;;;;;;;7.28;3.78;;;18.10;90.70;;;;;;4994978;28;20049;-49
2022/02/09 15:27:23;;;;;;;6.30;3.50;;;17.40;91.30;;;;;;4988793;28;20175;-50
2022/02/09 15:29:49;;;;;;;7.95;5.45;;;16.90;91.60;;;;;;5024669;28;20065;-50
2022/02/09 15:34:52;;;;;;;65.88;13.77;;;16.40;92.20;;;;;;5008992;28;20045;-49
2022/02/09 15:37:28;;;;;;;29.35;9.68;;;16.20;92.30;;;;;;5008808;28;20045;-49
2022/02/09 15:39:56;;;;;;;22.35;7.40;;;16.10;92.60;;;;;;5004727;28;20514;-49
2022/02/09 16:09:35;;;;;;;48.25;16.92;;;15.40;92.90;;;;;;4973183;28;20074;-47
2022/02/09 16:22:56;;;;;;;42.08;26.92;;;14.50;94.30;;;;;;4998856;28;20140;-50
2022/02/09 16:36:43;;;;;;;20.73;14.30;;;;;;;;;;5001207;28;20141;-51
2022/02/09 16:46:50;;;;;;;160.25;99.88;;;12.60;99.90;;;;;;5009731;28;20040;-52
2022/02/09 16:49:27;;;;;;;174.02;111.80;;;12.70;99.90;;;;;;4992895;28;20037;-51
2022/02/09 16:52:01;;;;;;;295.38;184.32;;;12.80;99.90;;;;;;5000840;28;20091;-51
2022/02/09 16:54:45;;;;;;;214.82;143.90;;;;;;;;;;5013365;28;20091;-51
2022/02/09 17:19:33;;;;;;;18.13;13.48;;;12.00;99.90;;;;;;4900422;29;20168;-52
2022/02/09 17:21:59;;;;;;;16.90;13.07;;;12.00;99.90;;;;;;4905160;29;20044;-51
2022/02/09 17:24:25;;;;;;;26.35;22.98;;;12.00;99.90;;;;;;4903086;29;20036;-52
2022/02/09 17:26:53;;;;;;;14.95;9.85;;;12.00;99.90;;;;;;4902068;29;20139;-51
2022/02/09 17:29:23;;;;;;;21.45;14.52;;;11.40;99.90;;;;;;4907478;29;20067;-51
2022/02/09 17:34:43;;;;;;;16.63;11.63;;;11.10;99.90;;;;;;4906768;29;20053;-52
2022/02/09 17:53:32;;;;;;;235.90;93.10;;;11.40;99.90;;;;;;5006076;28;20091;-52
2022/02/09 17:58:35;;;;;;;53.15;35.78;;;11.60;99.90;;;;;;5009594;28;20176;-52
2022/02/09 18:01:03;;;;;;;32.60;23.35;;;11.50;99.90;;;;;;5026787;28;20113;-53
2022/02/09 18:03:29;;;;;;;26.10;18.42;;;11.40;99.90;;;;;;5013520;28;20642;-51
2022/02/09 18:05:58;;;;;;;24.52;15.98;;;11.30;99.90;;;;;;5013025;28;20036;-51
2022/02/09 18:08:33;;;;;;;29.55;18.63;;;11.00;99.90;;;;;;5009907;28;20053;-51
2022/02/09 18:25:11;;;;;;;38.85;25.35;;;;;;;;;;5009217;28;20037;-49
2022/02/09 18:29:41;;;;;;;20.67;14.35;;;9.40;99.90;;;;;;5006740;28;20081;-47
2022/02/09 19:04:24;;;;;;;20.40;14.38;;;8.40;99.90;;;;;;4979427;28;20145;-46
2022/02/09 19:15:21;;;;;;;45.47;28.20;;;8.20;99.90;;;;;;4990944;28;20497;-47
2022/02/09 19:17:50;;;;;;;51.05;34.90;;;8.20;99.90;;;;;;4989086;28;20035;-47
2022/02/09 19:31:25;;;;;;;21.63;15.48;;;;;;;;;;4940149;28;20750;-49
2022/02/09 19:47:15;;;;;;;35.10;23.25;;;8.10;99.90;;;;;;4969427;28;20129;-49
2022/02/09 19:57:11;;;;;;;38.88;25.02;;;7.70;99.90;;;;;;4937377;28;20034;-44
2022/02/09 19:59:38;;;;;;;41.75;27.35;;;7.60;99.90;;;;;;4971608;28;20117;-42
2022/02/09 20:02:07;;;;;;;45.65;29.23;;;7.60;99.90;;;;;;4971500;28;20051;-47
2022/02/09 20:04:34;;;;;;;42.05;27.88;;;7.50;99.90;;;;;;4971803;28;20035;-48
2022/02/09 20:07:01;;;;;;;34.70;22.25;;;7.50;99.90;;;;;;4985801;28;20084;-48
2022/02/09 20:09:27;;;;;;;26.92;20.70;;;7.50;99.90;;;;;;5028370;28;20069;-49
2022/02/09 20:11:54;;;;;;;24.35;15.70;;;7.40;99.90;;;;;;5011288;28;20041;-48
2022/02/09 20:14:21;;;;;;;23.83;16.50;;;7.20;99.90;;;;;;5013082;28;20025;-46
2022/02/09 20:16:47;;;;;;;20.33;13.23;;;7.20;99.90;;;;;;4993525;28;20038;-47
2022/02/09 20:19:13;;;;;;;20.70;10.55;;;7.10;99.90;;;;;;5011325;28;20433;-45
2022/02/09 20:21:39;;;;;;;16.13;9.63;;;7.00;99.90;;;;;;5005574;28;20030;-47
2022/02/09 20:24:11;;;;;;;17.50;11.25;;;6.90;99.90;;;;;;5028151;28;20536;-45
2022/02/09 20:26:36;;;;;;;19.25;13.90;;;7.00;99.90;;;;;;5015082;28;20030;-47
2022/02/09 20:29:09;;;;;;;13.40;9.40;;;7.00;99.90;;;;;;5012241;28;20157;-49
2022/02/09 20:31:45;;;;;;;19.13;11.73;;;6.90;99.90;;;;;;4997137;28;20129;-46
2022/02/09 20:34:21;;;;;;;23.55;13.55;;;6.90;99.90;;;;;;5004877;28;20053;-45
2022/02/09 20:36:47;;;;;;;14.20;9.60;;;6.90;99.90;;;;;;5013779;28;20042;-48
2022/02/09 20:39:18;;;;;;;11.27;6.82;;;6.80;99.90;;;;;;5027659;28;20045;-45
2022/02/09 20:41:45;;;;;;;16.85;10.30;;;6.60;99.90;;;;;;5010160;28;20029;-47
2022/02/09 20:44:24;;;;;;;16.67;8.95;;;6.50;99.90;;;;;;4995805;28;20503;-49
2022/02/09 20:46:52;;;;;;;11.27;6.45;;;6.30;99.90;;;;;;5013510;28;20034;-45
2022/02/09 20:49:19;;;;;;;13.85;8.68;;;6.40;99.90;;;;;;5014430;28;20163;-48
2022/02/09 20:51:44;;;;;;;10.80;7.07;;;6.40;99.90;;;;;;5012974;28;20053;-53
2022/02/09 20:54:30;;;;;;;12.52;7.97;;;6.40;99.90;;;;;;5012025;28;20520;-45
2022/02/09 20:56:57;;;;;;;13.32;7.03;;;6.30;99.90;;;;;;5026108;28;20043;-53
2022/02/09 20:59:22;;;;;;;11.80;6.53;;;6.20;99.90;;;;;;5001631;28;20516;-52
2022/02/09 21:02:02;;;;;;;11.77;7.13;;;6.10;99.90;;;;;;5029329;28;20037;-52
2022/02/09 21:04:30;;;;;;;20.48;14.45;;;6.30;99.90;;;;;;5028723;28;20128;-51
2022/02/09 21:07:15;;;;;;;13.35;8.98;;;6.40;99.90;;;;;;5007280;28;20049;-52
2022/02/09 21:46:51;;;;;;;12.80;5.85;;;6.40;99.90;;;;;;5011907;28;20075;-46
2022/02/09 21:54:20;;;;;;;9.15;5.13;;;6.60;99.90;;;;;;5011505;28;20041;-52
2022/02/09 21:59:23;;;;;;;10.23;6.28;;;6.60;99.90;;;;;;5027719;28;20034;-50
2022/02/09 22:16:16;;;;;;;7.90;4.68;;;6.40;99.90;;;;;;5011227;28;20630;-51
2022/02/09 22:24:14;;;;;;;12.75;8.48;;;6.10;99.90;;;;;;5030610;28;20040;-49
2022/02/09 22:31:54;;;;;;;20.30;10.98;;;6.40;99.90;;;;;;5029644;28;20036;-53
2022/02/09 22:55:39;;;;;;;13.70;8.38;;;5.80;99.90;;;;;;5011118;28;20049;-49
2022/02/09 22:58:06;;;;;;;12.05;8.25;;;5.80;99.90;;;;;;5025629;28;20425;-53
2022/02/09 23:03:27;;;;;;;12.63;8.07;;;5.80;99.90;;;;;;5012453;28;20175;-49
2022/02/09 23:06:28;;;;;;;14.95;9.32;;;5.60;99.90;;;;;;5010225;28;20109;-48
2022/02/09 23:17:36;;;;;;;15.77;10.25;;;5.00;99.90;;;;;;5014011;28;20041;-50
